sensor_id;sensor_type;location;lat;lon;timestamp;pressure;altitude;pressure_sealevel;temperature;humidity
84677;BME280;74901;55.024;73.254;2024-03-06T00:01:22;100578.75;;;-9.02;77.94
84677;BME280;74901;55.024;73.254;2024-03-06T00:03:51;100582.22;;;-9.01;77.95
84677;BME280;74901;55.024;73.254;2024-03-06T00:06:20;100589.91;;;-9.00;78.00
84677;BME280;74901;55.024;73.254;2024-03-06T00:08:49;100592.06;;;-8.96;77.92
84677;BME280;74901;55.024;73.254;2024-03-06T00:11:18;100587.78;;;-8.97;77.66
84677;BME280;74901;55.024;73.254;2024-03-06T00:13:48;100593.94;;;-8.92;77.89
84677;BME280;74901;55.024;73.254;2024-03-06T00:16:17;100587.00;;;-8.88;77.93
84677;BME280;74901;55.024;73.254;2024-03-06T00:18:47;100580.63;;;-8.87;77.65
84677;BME280;74901;55.024;73.254;2024-03-06T00:21:16;100468.59;;;-9.58;77.74
84677;BME280;74901;55.024;73.254;2024-03-06T00:23:45;100587.06;;;-8.83;77.74
84677;BME280;74901;55.024;73.254;2024-03-06T00:26:14;100579.06;;;-8.83;77.53
84677;BME280;74901;55.024;73.254;2024-03-06T00:28:43;100578.78;;;-8.86;77.62
84677;BME280;74901;55.024;73.254;2024-03-06T00:31:13;100589.97;;;-8.89;77.69
84677;BME280;74901;55.024;73.254;2024-03-06T00:33:41;100588.88;;;-8.93;77.56
84677;BME280;74901;55.024;73.254;2024-03-06T00:36:10;100589.41;;;-8.96;77.47
84677;BME280;74901;55.024;73.254;2024-03-06T00:38:39;100587.22;;;-9.10;77.68
84677;BME280;74901;55.024;73.254;2024-03-06T00:41:07;100598.34;;;-9.23;77.90
84677;BME280;74901;55.024;73.254;2024-03-06T00:43:37;100590.56;;;-9.34;77.95
84677;BME280;74901;55.024;73.254;2024-03-06T00:46:06;100599.28;;;-9.44;78.10
84677;BME280;74901;55.024;73.254;2024-03-06T00:48:36;100601.13;;;-9.50;78.14
84677;BME280;74901;55.024;73.254;2024-03-06T00:51:06;100595.25;;;-9.57;78.20
84677;BME280;74901;55.024;73.254;2024-03-06T00:53:35;100598.88;;;-9.68;78.20
84677;BME280;74901;55.024;73.254;2024-03-06T00:56:04;100588.47;;;-9.74;78.39
84677;BME280;74901;55.024;73.254;2024-03-06T00:58:33;100589.47;;;-9.81;78.22
84677;BME280;74901;55.024;73.254;2024-03-06T01:01:02;100599.28;;;-9.86;78.32
84677;BME280;74901;55.024;73.254;2024-03-06T01:03:31;100591.28;;;-9.91;78.27
84677;BME280;74901;55.024;73.254;2024-03-06T01:06:02;100588.00;;;-10.03;78.53
84677;BME280;74901;55.024;73.254;2024-03-06T01:08:31;100600.00;;;-10.01;78.28
84677;BME280;74901;55.024;73.254;2024-03-06T01:11:00;100595.47;;;-10.00;78.26
84677;BME280;74901;55.024;73.254;2024-03-06T01:13:28;100603.69;;;-10.02;78.18
84677;BME280;74901;55.024;73.254;2024-03-06T01:15:57;100617.28;;;-9.98;77.74
84677;BME280;74901;55.024;73.254;2024-03-06T01:18:26;100610.31;;;-10.04;77.39
84677;BME280;74901;55.024;73.254;2024-03-06T01:20:55;100623.66;;;-9.99;77.85
84677;BME280;74901;55.024;73.254;2024-03-06T01:23:25;100619.66;;;-10.02;77.79
84677;BME280;74901;55.024;73.254;2024-03-06T01:25:54;100619.91;;;-10.03;77.57
84677;BME280;74901;55.024;73.254;2024-03-06T01:28:23;100623.59;;;-10.04;77.46
84677;BME280;74901;55.024;73.254;2024-03-06T01:30:52;100623.09;;;-10.06;77.53
84677;BME280;74901;55.024;73.254;2024-03-06T01:33:21;100631.06;;;-10.06;77.43
84677;BME280;74901;55.024;73.254;2024-03-06T01:35:50;100638.22;;;-10.07;77.75
84677;BME280;74901;55.024;73.254;2024-03-06T01:38:19;100635.84;;;-10.03;77.53
84677;BME280;74901;55.024;73.254;2024-03-06T01:40:50;100632.94;;;-10.02;77.47
84677;BME280;74901;55.024;73.254;2024-03-06T01:43:22;100640.81;;;-10.12;77.35
84677;BME280;74901;55.024;73.254;2024-03-06T01:45:52;100641.31;;;-10.20;77.45
84677;BME280;74901;55.024;73.254;2024-03-06T01:48:26;100635.50;;;-10.12;77.61
84677;BME280;74901;55.024;73.254;2024-03-06T01:50:59;100640.69;;;-10.00;77.45
84677;BME280;74901;55.024;73.254;2024-03-06T01:53:27;100637.81;;;-9.94;77.37
84677;BME280;74901;55.024;73.254;2024-03-06T01:56:00;100642.34;;;-9.89;76.97
84677;BME280;74901;55.024;73.254;2024-03-06T01:58:30;100636.06;;;-9.78;76.87
84677;BME280;74901;55.024;73.254;2024-03-06T02:01:00;100641.22;;;-9.61;76.88
84677;BME280;74901;55.024;73.254;2024-03-06T02:03:29;100647.47;;;-9.46;76.63
84677;BME280;74901;55.024;73.254;2024-03-06T02:06:02;100645.06;;;-9.42;76.48
84677;BME280;74901;55.024;73.254;2024-03-06T02:08:31;100650.72;;;-9.38;76.40
84677;BME280;74901;55.024;73.254;2024-03-06T02:11:02;100647.28;;;-9.29;76.14
84677;BME280;74901;55.024;73.254;2024-03-06T02:13:31;100639.88;;;-9.22;76.01
84677;BME280;74901;55.024;73.254;2024-03-06T02:16:00;100630.28;;;-9.23;75.81
84677;BME280;74901;55.024;73.254;2024-03-06T02:18:28;100648.72;;;-9.11;75.81
84677;BME280;74901;55.024;73.254;2024-03-06T02:20:59;100635.94;;;-9.09;75.71
84677;BME280;74901;55.024;73.254;2024-03-06T02:23:28;100635.72;;;-9.03;75.69
84677;BME280;74901;55.024;73.254;2024-03-06T02:25:57;100642.69;;;-8.91;75.75
84677;BME280;74901;55.024;73.254;2024-03-06T02:28:26;100644.56;;;-8.82;75.71
84677;BME280;74901;55.024;73.254;2024-03-06T02:30:55;100642.47;;;-8.70;75.52
84677;BME280;74901;55.024;73.254;2024-03-06T02:33:24;100655.59;;;-8.58;75.53
84677;BME280;74901;55.024;73.254;2024-03-06T02:35:55;100651.34;;;-8.54;75.21
84677;BME280;74901;55.024;73.254;2024-03-06T02:38:27;100651.34;;;-8.54;75.31
84677;BME280;74901;55.024;73.254;2024-03-06T02:40:56;100652.13;;;-8.58;75.43
84677;BME280;74901;55.024;73.254;2024-03-06T02:43:24;100663.84;;;-8.60;75.37
84677;BME280;74901;55.024;73.254;2024-03-06T02:45:53;100657.72;;;-8.65;75.41
84677;BME280;74901;55.024;73.254;2024-03-06T02:48:22;100664.66;;;-8.54;75.54
84677;BME280;74901;55.024;73.254;2024-03-06T02:50:52;100663.31;;;-8.56;75.68
84677;BME280;74901;55.024;73.254;2024-03-06T02:53:21;100674.28;;;-8.43;75.23
84677;BME280;74901;55.024;73.254;2024-03-06T02:55:51;100667.66;;;-8.40;75.07
84677;BME280;74901;55.024;73.254;2024-03-06T02:58:20;100668.19;;;-8.33;74.93
84677;BME280;74901;55.024;73.254;2024-03-06T03:00:49;100671.13;;;-8.09;74.52
84677;BME280;74901;55.024;73.254;2024-03-06T03:03:18;100660.72;;;-8.01;74.66
84677;BME280;74901;55.024;73.254;2024-03-06T03:05:47;100664.50;;;-7.92;74.25
84677;BME280;74901;55.024;73.254;2024-03-06T03:08:15;100666.59;;;-7.89;73.83
84677;BME280;74901;55.024;73.254;2024-03-06T03:10:44;100666.09;;;-7.91;74.16
84677;BME280;74901;55.024;73.254;2024-03-06T03:13:15;100665.28;;;-7.71;74.24
84677;BME280;74901;55.024;73.254;2024-03-06T03:15:43;100662.59;;;-7.71;74.10
84677;BME280;74901;55.024;73.254;2024-03-06T03:18:14;100665.03;;;-7.54;74.01
84677;BME280;74901;55.024;73.254;2024-03-06T03:20:43;100662.84;;;-7.37;73.61
84677;BME280;74901;55.024;73.254;2024-03-06T03:23:12;100670.31;;;-7.24;73.38
84677;BME280;74901;55.024;73.254;2024-03-06T03:25:43;100665.75;;;-7.18;72.99
84677;BME280;74901;55.024;73.254;2024-03-06T03:28:12;100664.16;;;-7.19;73.29
84677;BME280;74901;55.024;73.254;2024-03-06T03:30:43;100678.09;;;-7.43;73.38
84677;BME280;74901;55.024;73.254;2024-03-06T03:33:12;100671.13;;;-7.44;73.95
84677;BME280;74901;55.024;73.254;2024-03-06T03:35:41;100676.22;;;-7.37;73.64
84677;BME280;74901;55.024;73.254;2024-03-06T03:38:09;100677.53;;;-7.29;73.34
84677;BME280;74901;55.024;73.254;2024-03-06T03:40:38;100675.38;;;-7.27;72.89
84677;BME280;74901;55.024;73.254;2024-03-06T03:43:07;100675.69;;;-7.49;73.31
84677;BME280;74901;55.024;73.254;2024-03-06T03:45:36;100683.41;;;-7.83;73.52
84677;BME280;74901;55.024;73.254;2024-03-06T03:48:07;100671.13;;;-7.94;73.82
84677;BME280;74901;55.024;73.254;2024-03-06T03:50:36;100677.53;;;-7.95;73.73
84677;BME280;74901;55.024;73.254;2024-03-06T03:53:05;100681.81;;;-7.99;73.79
84677;BME280;74901;55.024;73.254;2024-03-06T03:55:34;100679.16;;;-8.09;74.16
84677;BME280;74901;55.024;73.254;2024-03-06T03:58:03;100694.06;;;-8.13;73.89
84677;BME280;74901;55.024;73.254;2024-03-06T04:00:33;100686.03;;;-8.19;73.75
84677;BME280;74901;55.024;73.254;2024-03-06T04:03:02;100690.31;;;-8.23;73.79
84677;BME280;74901;55.024;73.254;2024-03-06T04:05:33;100685.78;;;-8.22;73.84
84677;BME280;74901;55.024;73.254;2024-03-06T04:08:01;100690.56;;;-8.19;73.49
84677;BME280;74901;55.024;73.254;2024-03-06T04:10:32;100679.66;;;-8.12;73.29
84677;BME280;74901;55.024;73.254;2024-03-06T04:13:01;100685.78;;;-8.12;73.12
84677;BME280;74901;55.024;73.254;2024-03-06T04:15:30;100687.16;;;-8.04;72.99
84677;BME280;74901;55.024;73.254;2024-03-06T04:18:00;100684.22;;;-7.98;72.84
84677;BME280;74901;55.024;73.254;2024-03-06T04:20:28;100684.75;;;-7.96;72.58
84677;BME280;74901;55.024;73.254;2024-03-06T04:22:59;100676.44;;;-8.20;72.85
84677;BME280;74901;55.024;73.254;2024-03-06T04:25:28;100679.91;;;-8.24;72.94
84677;BME280;74901;55.024;73.254;2024-03-06T04:27:56;100682.63;;;-8.09;72.91
84677;BME280;74901;55.024;73.254;2024-03-06T04:30:25;100675.97;;;-7.91;72.60
84677;BME280;74901;55.024;73.254;2024-03-06T04:32:54;100678.38;;;-7.80;71.99
84677;BME280;74901;55.024;73.254;2024-03-06T04:35:23;100683.19;;;-7.71;71.93
84677;BME280;74901;55.024;73.254;2024-03-06T04:37:52;100676.75;;;-7.55;71.75
84677;BME280;74901;55.024;73.254;2024-03-06T04:40:22;100680.75;;;-7.48;71.60
84677;BME280;74901;55.024;73.254;2024-03-06T04:42:52;100689.56;;;-7.42;71.71
84677;BME280;74901;55.024;73.254;2024-03-06T04:45:21;100664.19;;;-7.34;71.11
84677;BME280;74901;55.024;73.254;2024-03-06T04:47:50;100677.75;;;-7.16;71.19
84677;BME280;74901;55.024;73.254;2024-03-06T04:50:18;100666.78;;;-7.09;71.14
84677;BME280;74901;55.024;73.254;2024-03-06T04:52:47;100672.94;;;-7.04;70.66
84677;BME280;74901;55.024;73.254;2024-03-06T04:55:16;100679.84;;;-6.87;70.77
84677;BME280;74901;55.024;73.254;2024-03-06T04:57:51;100680.63;;;-6.82;70.63
84677;BME280;74901;55.024;73.254;2024-03-06T05:00:20;100686.50;;;-6.90;70.05
84677;BME280;74901;55.024;73.254;2024-03-06T05:02:49;100671.31;;;-6.95;70.30
84677;BME280;74901;55.024;73.254;2024-03-06T05:05:17;100670.75;;;-6.86;70.73
84677;BME280;74901;55.024;73.254;2024-03-06T05:07:46;100665.66;;;-6.83;70.74
84677;BME280;74901;55.024;73.254;2024-03-06T05:10:16;100666.69;;;-6.74;70.51
84677;BME280;74901;55.024;73.254;2024-03-06T05:12:44;100660.53;;;-6.69;70.16
84677;BME280;74901;55.024;73.254;2024-03-06T05:15:15;100656.47;;;-6.62;70.24
84677;BME280;74901;55.024;73.254;2024-03-06T05:17:46;100665.00;;;-6.55;69.80
84677;BME280;74901;55.024;73.254;2024-03-06T05:20:15;100665.72;;;-6.39;69.98
84677;BME280;74901;55.024;73.254;2024-03-06T05:22:44;100671.59;;;-6.37;69.56
84677;BME280;74901;55.024;73.254;2024-03-06T05:25:13;100670.69;;;-6.22;69.39
84677;BME280;74901;55.024;73.254;2024-03-06T05:27:42;100669.28;;;-6.09;69.23
84677;BME280;74901;55.024;73.254;2024-03-06T05:30:11;100667.38;;;-6.04;68.95
84677;BME280;74901;55.024;73.254;2024-03-06T05:32:43;100670.94;;;-5.85;68.54
84677;BME280;74901;55.024;73.254;2024-03-06T05:35:13;100667.53;;;-5.90;68.48
84677;BME280;74901;55.024;73.254;2024-03-06T05:37:42;100670.78;;;-5.93;69.02
84677;BME280;74901;55.024;73.254;2024-03-06T05:40:12;100657.50;;;-5.75;68.57
84677;BME280;74901;55.024;73.254;2024-03-06T05:42:40;100658.38;;;-5.55;68.08
84677;BME280;74901;55.024;73.254;2024-03-06T05:45:09;100663.47;;;-5.54;68.18
84677;BME280;74901;55.024;73.254;2024-03-06T05:47:38;100657.53;;;-5.22;67.30
84677;BME280;74901;55.024;73.254;2024-03-06T05:50:09;100658.22;;;-4.88;66.36
84677;BME280;74901;55.024;73.254;2024-03-06T05:52:39;100654.69;;;-4.59;65.97
84677;BME280;74901;55.024;73.254;2024-03-06T05:55:08;100653.19;;;-4.28;65.21
84677;BME280;74901;55.024;73.254;2024-03-06T05:57:37;100658.03;;;-4.30;65.59
84677;BME280;74901;55.024;73.254;2024-03-06T06:00:07;100646.94;;;-3.86;64.76
84677;BME280;74901;55.024;73.254;2024-03-06T06:02:38;100650.56;;;-3.63;64.09
84677;BME280;74901;55.024;73.254;2024-03-06T06:05:09;100649.81;;;-3.50;64.08
84677;BME280;74901;55.024;73.254;2024-03-06T06:07:38;100645.50;;;-3.18;63.83
84677;BME280;74901;55.024;73.254;2024-03-06T06:10:07;100644.34;;;-2.85;62.84
84677;BME280;74901;55.024;73.254;2024-03-06T06:12:37;100646.69;;;-2.56;62.75
84677;BME280;74901;55.024;73.254;2024-03-06T06:15:06;100659.06;;;-2.69;62.15
84677;BME280;74901;55.024;73.254;2024-03-06T06:17:36;100659.06;;;-2.69;62.28
84677;BME280;74901;55.024;73.254;2024-03-06T06:20:07;100654.97;;;-2.94;62.72
84677;BME280;74901;55.024;73.254;2024-03-06T06:22:43;100658.66;;;-2.76;61.74
84677;BME280;74901;55.024;73.254;2024-03-06T06:25:12;100648.78;;;-3.08;62.55
84677;BME280;74901;55.024;73.254;2024-03-06T06:27:42;100645.13;;;-2.84;62.14
84677;BME280;74901;55.024;73.254;2024-03-06T06:30:11;100648.88;;;-2.58;61.85
84677;BME280;74901;55.024;73.254;2024-03-06T06:32:40;100646.44;;;-2.32;60.12
84677;BME280;74901;55.024;73.254;2024-03-06T06:35:10;100645.06;;;-2.30;60.05
84677;BME280;74901;55.024;73.254;2024-03-06T06:37:40;100641.22;;;-2.15;59.96
84677;BME280;74901;55.024;73.254;2024-03-06T06:40:12;100633.22;;;-2.07;60.46
84677;BME280;74901;55.024;73.254;2024-03-06T06:42:44;100637.72;;;-1.80;59.08
84677;BME280;74901;55.024;73.254;2024-03-06T06:45:16;100631.25;;;-1.70;59.54
84677;BME280;74901;55.024;73.254;2024-03-06T06:47:45;100631.94;;;-1.65;59.09
84677;BME280;74901;55.024;73.254;2024-03-06T06:50:15;100628.44;;;-1.43;58.21
84677;BME280;74901;55.024;73.254;2024-03-06T06:52:43;100625.38;;;-1.19;58.02
84677;BME280;74901;55.024;73.254;2024-03-06T06:55:14;100620.38;;;-0.95;58.09
84677;BME280;74901;55.024;73.254;2024-03-06T06:57:43;100620.88;;;-0.84;56.97
84677;BME280;74901;55.024;73.254;2024-03-06T07:00:12;100626.03;;;-0.65;57.35
84677;BME280;74901;55.024;73.254;2024-03-06T07:02:43;100624.97;;;-0.30;56.26
84677;BME280;74901;55.024;73.254;2024-03-06T07:05:12;100627.19;;;-0.23;55.50
84677;BME280;74901;55.024;73.254;2024-03-06T07:07:41;100627.19;;;-0.23;55.63
84677;BME280;74901;55.024;73.254;2024-03-06T07:10:10;100620.53;;;-0.26;55.71
84677;BME280;74901;55.024;73.254;2024-03-06T07:12:40;100621.47;;;-0.22;55.35
84677;BME280;74901;55.024;73.254;2024-03-06T07:15:09;100617.38;;;-0.19;54.91
84677;BME280;74901;55.024;73.254;2024-03-06T07:17:39;100616.72;;;-0.25;54.95
84677;BME280;74901;55.024;73.254;2024-03-06T07:20:08;100612.28;;;-0.21;55.70
84677;BME280;74901;55.024;73.254;2024-03-06T07:22:38;100609.72;;;-0.09;54.35
84677;BME280;74901;55.024;73.254;2024-03-06T07:25:07;100612.13;;;-0.07;55.02
84677;BME280;74901;55.024;73.254;2024-03-06T07:27:36;100607.66;;;-0.03;54.65
84677;BME280;74901;55.024;73.254;2024-03-06T07:30:08;100608.16;;;-0.01;54.40
84677;BME280;74901;55.024;73.254;2024-03-06T07:32:38;100607.19;;;0.12;54.04
84677;BME280;74901;55.024;73.254;2024-03-06T07:35:07;100616.56;;;0.06;54.62
84677;BME280;74901;55.024;73.254;2024-03-06T07:37:36;100609.72;;;-0.17;54.96
84677;BME280;74901;55.024;73.254;2024-03-06T07:40:06;100610.03;;;-0.27;54.88
84677;BME280;74901;55.024;73.254;2024-03-06T07:42:36;100592.88;;;-0.40;54.73
84677;BME280;74901;55.024;73.254;2024-03-06T07:45:08;100598.88;;;-0.43;54.06
84677;BME280;74901;55.024;73.254;2024-03-06T07:47:37;100590.94;;;-0.57;54.14
84677;BME280;74901;55.024;73.254;2024-03-06T07:50:11;100607.47;;;-0.58;53.96
84677;BME280;74901;55.024;73.254;2024-03-06T07:52:45;100600.94;;;-0.66;54.38
84677;BME280;74901;55.024;73.254;2024-03-06T07:55:14;100600.44;;;-0.76;55.00
84677;BME280;74901;55.024;73.254;2024-03-06T07:57:45;100599.53;;;-0.63;54.88
84677;BME280;74901;55.024;73.254;2024-03-06T08:00:16;100596.63;;;-0.67;54.02
84677;BME280;74901;55.024;73.254;2024-03-06T08:02:46;100599.16;;;-0.88;54.63
84677;BME280;74901;55.024;73.254;2024-03-06T08:05:18;100592.75;;;-1.00;54.63
84677;BME280;74901;55.024;73.254;2024-03-06T08:07:48;100599.78;;;-0.82;54.97
84677;BME280;74901;55.024;73.254;2024-03-06T08:10:17;100583.28;;;-0.80;54.87
84677;BME280;74901;55.024;73.254;2024-03-06T08:12:46;100589.78;;;-0.73;54.71
84677;BME280;74901;55.024;73.254;2024-03-06T08:15:17;100578.25;;;-0.56;54.27
84677;BME280;74901;55.024;73.254;2024-03-06T08:17:51;100573.66;;;-0.38;53.98
84677;BME280;74901;55.024;73.254;2024-03-06T08:20:20;100572.84;;;-0.39;53.78
84677;BME280;74901;55.024;73.254;2024-03-06T08:22:49;100568.41;;;-0.44;54.54
84677;BME280;74901;55.024;73.254;2024-03-06T08:25:18;100560.59;;;-0.71;53.90
84677;BME280;74901;55.024;73.254;2024-03-06T08:27:46;100560.28;;;-0.69;54.52
84677;BME280;74901;55.024;73.254;2024-03-06T08:30:16;100570.00;;;-0.51;54.45
84677;BME280;74901;55.024;73.254;2024-03-06T08:32:45;100568.56;;;-0.40;54.31
84677;BME280;74901;55.024;73.254;2024-03-06T08:35:14;100560.44;;;-0.23;54.51
84677;BME280;74901;55.024;73.254;2024-03-06T08:37:45;100559.34;;;-0.22;54.24
84677;BME280;74901;55.024;73.254;2024-03-06T08:40:13;100565.72;;;-0.26;53.95
84677;BME280;74901;55.024;73.254;2024-03-06T08:42:44;100564.44;;;-0.29;53.67
84677;BME280;74901;55.024;73.254;2024-03-06T08:45:14;100559.50;;;-0.27;53.96
84677;BME280;74901;55.024;73.254;2024-03-06T08:47:44;100551.91;;;-0.25;54.23
84677;BME280;74901;55.024;73.254;2024-03-06T08:50:13;100555.22;;;-0.28;54.04
84677;BME280;74901;55.024;73.254;2024-03-06T08:52:43;100558.09;;;-0.33;54.26
84677;BME280;74901;55.024;73.254;2024-03-06T08:55:12;100555.88;;;-0.31;54.85
84677;BME280;74901;55.024;73.254;2024-03-06T08:57:39;100555.69;;;-0.52;54.29
84677;BME280;74901;55.024;73.254;2024-03-06T09:00:08;100546.59;;;-0.73;55.49
84677;BME280;74901;55.024;73.254;2024-03-06T09:02:38;100548.66;;;-0.78;55.20
84677;BME280;74901;55.024;73.254;2024-03-06T09:05:08;100547.06;;;-0.79;55.58
84677;BME280;74901;55.024;73.254;2024-03-06T09:07:39;100550.03;;;-0.98;56.55
84677;BME280;74901;55.024;73.254;2024-03-06T09:10:08;100545.59;;;-1.11;56.52
84677;BME280;74901;55.024;73.254;2024-03-06T09:12:37;100549.16;;;-1.33;56.01
84677;BME280;74901;55.024;73.254;2024-03-06T09:15:06;100548.25;;;-1.59;56.87
84677;BME280;74901;55.024;73.254;2024-03-06T09:17:35;100556.28;;;-1.68;56.48
84677;BME280;74901;55.024;73.254;2024-03-06T09:20:05;100558.28;;;-1.82;57.20
84677;BME280;74901;55.024;73.254;2024-03-06T09:22:38;100559.34;;;-1.92;57.60
84677;BME280;74901;55.024;73.254;2024-03-06T09:25:08;100551.56;;;-1.93;57.46
84677;BME280;74901;55.024;73.254;2024-03-06T09:27:39;100554.38;;;-1.98;57.31
84677;BME280;74901;55.024;73.254;2024-03-06T09:30:08;100554.31;;;-2.07;57.04
84677;BME280;74901;55.024;73.254;2024-03-06T09:32:38;100556.81;;;-2.11;57.41
84677;BME280;74901;55.024;73.254;2024-03-06T09:35:08;100555.41;;;-2.08;57.72
84677;BME280;74901;55.024;73.254;2024-03-06T09:37:39;100557.16;;;-2.04;57.86
84677;BME280;74901;55.024;73.254;2024-03-06T09:40:10;100535.50;;;-2.21;57.72
84677;BME280;74901;55.024;73.254;2024-03-06T09:42:39;100551.00;;;-2.26;57.36
84677;BME280;74901;55.024;73.254;2024-03-06T09:45:09;100557.47;;;-2.50;58.09
84677;BME280;74901;55.024;73.254;2024-03-06T09:47:38;100552.63;;;-2.61;58.46
84677;BME280;74901;55.024;73.254;2024-03-06T09:50:09;100557.00;;;-2.65;59.20
84677;BME280;74901;55.024;73.254;2024-03-06T09:52:40;100552.13;;;-2.63;59.53
84677;BME280;74901;55.024;73.254;2024-03-06T09:55:13;100547.66;;;-2.68;59.18
84677;BME280;74901;55.024;73.254;2024-03-06T09:57:42;100547.00;;;-2.87;59.40
84677;BME280;74901;55.024;73.254;2024-03-06T10:00:12;100552.66;;;-3.02;59.58
84677;BME280;74901;55.024;73.254;2024-03-06T10:02:49;100560.66;;;-3.11;60.22
84677;BME280;74901;55.024;73.254;2024-03-06T10:05:23;100556.09;;;-3.24;59.90
84677;BME280;74901;55.024;73.254;2024-03-06T10:07:54;100550.91;;;-3.20;60.06
84677;BME280;74901;55.024;73.254;2024-03-06T10:10:23;100556.66;;;-3.13;59.86
84677;BME280;74901;55.024;73.254;2024-03-06T10:12:52;100552.38;;;-3.14;60.63
84677;BME280;74901;55.024;73.254;2024-03-06T10:15:21;100562.94;;;-3.18;60.22
84677;BME280;74901;55.024;73.254;2024-03-06T10:17:49;100556.66;;;-3.13;59.95
84677;BME280;74901;55.024;73.254;2024-03-06T10:20:19;100555.41;;;-3.16;60.46
84677;BME280;74901;55.024;73.254;2024-03-06T10:22:50;100560.94;;;-3.26;60.41
84677;BME280;74901;55.024;73.254;2024-03-06T10:25:22;100561.44;;;-3.38;60.71
84677;BME280;74901;55.024;73.254;2024-03-06T10:28:06;100552.69;;;-3.43;60.88
84677;BME280;74901;55.024;73.254;2024-03-06T10:30:36;100558.16;;;-3.48;60.92
84677;BME280;74901;55.024;73.254;2024-03-06T10:33:05;100547.72;;;-3.50;61.11
84677;BME280;74901;55.024;73.254;2024-03-06T10:35:34;100543.72;;;-3.39;61.70
84677;BME280;74901;55.024;73.254;2024-03-06T10:38:05;100538.16;;;-3.42;61.19
84677;BME280;74901;55.024;73.254;2024-03-06T10:40:36;100536.56;;;-3.43;61.82
84677;BME280;74901;55.024;73.254;2024-03-06T10:43:06;100530.78;;;-3.37;61.41
84677;BME280;74901;55.024;73.254;2024-03-06T10:45:41;100524.84;;;-3.34;61.36
84677;BME280;74901;55.024;73.254;2024-03-06T10:48:13;100522.84;;;-3.28;61.52
84677;BME280;74901;55.024;73.254;2024-03-06T10:50:43;100527.41;;;-3.29;61.20
84677;BME280;74901;55.024;73.254;2024-03-06T10:53:13;100523.94;;;-3.29;61.74
84677;BME280;74901;55.024;73.254;2024-03-06T10:55:45;100531.31;;;-3.35;62.03
84677;BME280;74901;55.024;73.254;2024-03-06T10:58:14;100525.22;;;-3.40;61.70
84677;BME280;74901;55.024;73.254;2024-03-06T11:00:46;100524.03;;;-3.48;61.90
84677;BME280;74901;55.024;73.254;2024-03-06T11:03:16;100522.44;;;-3.49;62.59
84677;BME280;74901;55.024;73.254;2024-03-06T11:05:44;100521.06;;;-3.46;62.46
84677;BME280;74901;55.024;73.254;2024-03-06T11:08:15;100527.41;;;-3.56;62.51
84677;BME280;74901;55.024;73.254;2024-03-06T11:10:46;100514.16;;;-3.66;62.57
84677;BME280;74901;55.024;73.254;2024-03-06T11:13:24;100525.09;;;-3.62;63.22
84677;BME280;74901;55.024;73.254;2024-03-06T11:15:57;100523.03;;;-3.65;62.83
84677;BME280;74901;55.024;73.254;2024-03-06T11:18:42;100527.19;;;-3.73;62.93
84677;BME280;74901;55.024;73.254;2024-03-06T11:21:30;100534.75;;;-3.75;62.63
84677;BME280;74901;55.024;73.254;2024-03-06T11:24:19;100522.81;;;-3.69;63.28
84677;BME280;74901;55.024;73.254;2024-03-06T11:26:57;100521.22;;;-3.70;62.63
84677;BME280;74901;55.024;73.254;2024-03-06T11:29:28;100533.25;;;-3.68;63.25
84677;BME280;74901;55.024;73.254;2024-03-06T11:32:06;100524.00;;;-3.61;63.12
84677;BME280;74901;55.024;73.254;2024-03-06T11:34:36;100518.34;;;-3.60;63.08
84677;BME280;74901;55.024;73.254;2024-03-06T11:37:06;100511.97;;;-3.64;63.75
84677;BME280;74901;55.024;73.254;2024-03-06T11:39:36;100513.38;;;-3.67;62.93
84677;BME280;74901;55.024;73.254;2024-03-06T11:42:07;100515.84;;;-3.70;63.69
84677;BME280;74901;55.024;73.254;2024-03-06T11:44:36;100509.47;;;-3.74;64.14
84677;BME280;74901;55.024;73.254;2024-03-06T11:47:07;100506.88;;;-3.79;63.55
84677;BME280;74901;55.024;73.254;2024-03-06T11:49:37;100496.41;;;-3.94;64.30
84677;BME280;74901;55.024;73.254;2024-03-06T11:52:10;100505.25;;;-3.94;64.43
84677;BME280;74901;55.024;73.254;2024-03-06T11:54:39;100497.09;;;-4.02;64.83
84677;BME280;74901;55.024;73.254;2024-03-06T11:57:09;100496.31;;;-4.03;65.06
84677;BME280;74901;55.024;73.254;2024-03-06T11:59:43;100493.22;;;-4.10;64.46
84677;BME280;74901;55.024;73.254;2024-03-06T12:02:11;100489.91;;;-4.21;65.64
84677;BME280;74901;55.024;73.254;2024-03-06T12:04:41;100494.38;;;-4.16;65.05
84677;BME280;74901;55.024;73.254;2024-03-06T12:07:10;100487.66;;;-4.14;64.69
84677;BME280;74901;55.024;73.254;2024-03-06T12:09:40;100488.13;;;-4.12;64.97
84677;BME280;74901;55.024;73.254;2024-03-06T12:12:11;100486.25;;;-4.11;65.18
84677;BME280;74901;55.024;73.254;2024-03-06T12:14:40;100480.69;;;-4.15;65.08
84677;BME280;74901;55.024;73.254;2024-03-06T12:17:13;100489.41;;;-4.23;65.25
84677;BME280;74901;55.024;73.254;2024-03-06T12:19:43;100484.13;;;-4.28;65.95
84677;BME280;74901;55.024;73.254;2024-03-06T12:22:12;100477.28;;;-4.20;65.26
84677;BME280;74901;55.024;73.254;2024-03-06T12:24:41;100475.41;;;-4.20;65.47
84677;BME280;74901;55.024;73.254;2024-03-06T12:27:11;100474.19;;;-4.27;66.10
84677;BME280;74901;55.024;73.254;2024-03-06T12:29:41;100482.63;;;-4.34;65.65
84677;BME280;74901;55.024;73.254;2024-03-06T12:32:16;100487.03;;;-4.43;66.11
84677;BME280;74901;55.024;73.254;2024-03-06T12:34:45;100484.53;;;-4.53;66.29
84677;BME280;74901;55.024;73.254;2024-03-06T12:37:29;100486.25;;;-4.62;66.21
84677;BME280;74901;55.024;73.254;2024-03-06T12:39:59;100471.13;;;-4.72;66.23
84677;BME280;74901;55.024;73.254;2024-03-06T12:42:31;100464.19;;;-4.73;66.67
84677;BME280;74901;55.024;73.254;2024-03-06T12:45:00;100475.91;;;-4.69;66.63
84677;BME280;74901;55.024;73.254;2024-03-06T12:47:29;100476.31;;;-4.75;66.42
84677;BME280;74901;55.024;73.254;2024-03-06T12:49:58;100467.59;;;-4.86;66.84
84677;BME280;74901;55.024;73.254;2024-03-06T12:52:27;100477.47;;;-4.81;66.40
84677;BME280;74901;55.024;73.254;2024-03-06T12:54:56;100474.25;;;-4.83;66.51